sensor_id;sensor_type;location;lat;lon;timestamp;P1;durP1;ratioP1;P2;durP2;ratioP2
4132;SDS011;2080;51.038;7.008;2023-05-19T00:01:56;669.65;;;602.28;;
4132;SDS011;2080;51.038;7.008;2023-05-19T00:04:26;665.13;;;598.72;;
4132;SDS011;2080;51.038;7.008;2023-05-19T00:06:52;810.58;;;729.60;;
4132;SDS011;2080;51.038;7.008;2023-05-19T00:09:18;1070.40;;;962.50;;
4132;SDS011;2080;51.038;7.008;2023-05-19T00:11:44;983.27;;;885.67;;
4132;SDS011;2080;51.038;7.008;2023-05-19T00:14:12;1388.50;;;999.90;;
4132;SDS011;2080;51.038;7.008;2023-05-19T00:16:37;1769.90;;;999.90;;
4132;SDS011;2080;51.038;7.008;2023-05-19T00:19:06;1486.40;;;999.90;;
4132;SDS011;2080;51.038;7.008;2023-05-19T00:21:34;1340.30;;;999.90;;
4132;SDS011;2080;51.038;7.008;2023-05-19T00:24:02;1481.28;;;999.90;;
4132;SDS011;2080;51.038;7.008;2023-05-19T00:26:30;1489.27;;;999.90;;
4132;SDS011;2080;51.038;7.008;2023-05-19T00:28:57;1486.45;;;999.90;;
4132;SDS011;2080;51.038;7.008;2023-05-19T00:31:23;1482.73;;;999.90;;
4132;SDS011;2080;51.038;7.008;2023-05-19T00:33:48;1437.75;;;999.90;;
4132;SDS011;2080;51.038;7.008;2023-05-19T00:36:14;1512.47;;;999.90;;
4132;SDS011;2080;51.038;7.008;2023-05-19T00:38:39;1529.78;;;999.90;;
4132;SDS011;2080;51.038;7.008;2023-05-19T00:41:07;1331.07;;;999.90;;
4132;SDS011;2080;51.038;7.008;2023-05-19T00:43:32;1545.25;;;999.90;;
4132;SDS011;2080;51.038;7.008;2023-05-19T00:46:03;1640.85;;;999.90;;
4132;SDS011;2080;51.038;7.008;2023-05-19T00:48:31;1751.83;;;999.90;;
4132;SDS011;2080;51.038;7.008;2023-05-19T00:50:56;1948.73;;;999.90;;
4132;SDS011;2080;51.038;7.008;2023-05-19T00:53:28;1999.90;;;999.90;;
4132;SDS011;2080;51.038;7.008;2023-05-19T00:55:55;1984.57;;;999.90;;
4132;SDS011;2080;51.038;7.008;2023-05-19T00:58:21;1999.90;;;999.90;;
4132;SDS011;2080;51.038;7.008;2023-05-19T01:00:47;1730.57;;;941.65;;
4132;SDS011;2080;51.038;7.008;2023-05-19T01:03:18;1611.53;;;908.23;;
4132;SDS011;2080;51.038;7.008;2023-05-19T01:05:44;1999.90;;;999.90;;
4132;SDS011;2080;51.038;7.008;2023-05-19T01:08:09;1718.18;;;935.25;;
4132;SDS011;2080;51.038;7.008;2023-05-19T01:10:38;1428.88;;;850.58;;
4132;SDS011;2080;51.038;7.008;2023-05-19T01:13:03;1755.10;;;912.13;;
4132;SDS011;2080;51.038;7.008;2023-05-19T01:15:31;1794.22;;;913.88;;
4132;SDS011;2080;51.038;7.008;2023-05-19T01:18:02;1772.43;;;918.93;;
4132;SDS011;2080;51.038;7.008;2023-05-19T01:20:40;1612.18;;;959.13;;
4132;SDS011;2080;51.038;7.008;2023-05-19T01:26:12;1169.20;;;652.43;;
4132;SDS011;2080;51.038;7.008;2023-05-19T01:31:55;1999.90;;;999.90;;
4132;SDS011;2080;51.038;7.008;2023-05-19T01:34:24;1999.90;;;999.90;;
4132;SDS011;2080;51.038;7.008;2023-05-19T01:36:51;1999.90;;;999.90;;
4132;SDS011;2080;51.038;7.008;2023-05-19T01:39:19;1999.90;;;999.90;;
4132;SDS011;2080;51.038;7.008;2023-05-19T01:41:44;1999.90;;;999.90;;
4132;SDS011;2080;51.038;7.008;2023-05-19T01:44:11;1999.90;;;999.90;;
4132;SDS011;2080;51.038;7.008;2023-05-19T01:46:37;1999.90;;;999.90;;
4132;SDS011;2080;51.038;7.008;2023-05-19T01:49:05;1999.90;;;999.90;;
4132;SDS011;2080;51.038;7.008;2023-05-19T01:51:31;1999.90;;;999.90;;
4132;SDS011;2080;51.038;7.008;2023-05-19T01:53:59;1999.90;;;999.90;;
4132;SDS011;2080;51.038;7.008;2023-05-19T01:56:28;1999.90;;;999.90;;
4132;SDS011;2080;51.038;7.008;2023-05-19T01:59:03;1999.90;;;999.90;;
4132;SDS011;2080;51.038;7.008;2023-05-19T02:01:51;1999.90;;;999.90;;
4132;SDS011;2080;51.038;7.008;2023-05-19T02:04:38;1999.90;;;999.90;;
4132;SDS011;2080;51.038;7.008;2023-05-19T02:07:29;1999.90;;;999.90;;
4132;SDS011;2080;51.038;7.008;2023-05-19T02:10:05;1999.90;;;999.90;;
4132;SDS011;2080;51.038;7.008;2023-05-19T02:12:40;1999.90;;;999.90;;
4132;SDS011;2080;51.038;7.008;2023-05-19T02:15:16;1999.90;;;999.90;;
4132;SDS011;2080;51.038;7.008;2023-05-19T02:17:46;1999.90;;;999.90;;
4132;SDS011;2080;51.038;7.008;2023-05-19T02:20:16;1999.90;;;999.90;;
4132;SDS011;2080;51.038;7.008;2023-05-19T02:22:41;1999.90;;;999.90;;
4132;SDS011;2080;51.038;7.008;2023-05-19T02:25:08;1999.90;;;999.90;;
4132;SDS011;2080;51.038;7.008;2023-05-19T02:27:35;1999.90;;;999.90;;
4132;SDS011;2080;51.038;7.008;2023-05-19T02:30:02;1999.90;;;999.90;;
4132;SDS011;2080;51.038;7.008;2023-05-19T02:32:30;1999.90;;;999.90;;
4132;SDS011;2080;51.038;7.008;2023-05-19T02:34:56;1999.90;;;999.90;;
4132;SDS011;2080;51.038;7.008;2023-05-19T02:37:21;1999.90;;;999.90;;
4132;SDS011;2080;51.038;7.008;2023-05-19T02:39:52;1999.90;;;999.90;;
4132;SDS011;2080;51.038;7.008;2023-05-19T02:42:18;1999.90;;;999.90;;
4132;SDS011;2080;51.038;7.008;2023-05-19T02:44:43;1999.90;;;999.90;;
4132;SDS011;2080;51.038;7.008;2023-05-19T02:47:09;1999.90;;;999.90;;
4132;SDS011;2080;51.038;7.008;2023-05-19T02:49:34;1999.90;;;999.90;;
4132;SDS011;2080;51.038;7.008;2023-05-19T02:52:00;1999.90;;;999.90;;
4132;SDS011;2080;51.038;7.008;2023-05-19T02:54:29;1999.90;;;999.90;;
4132;SDS011;2080;51.038;7.008;2023-05-19T02:56:55;1999.90;;;999.90;;
4132;SDS011;2080;51.038;7.008;2023-05-19T02:59:20;1999.90;;;999.90;;
4132;SDS011;2080;51.038;7.008;2023-05-19T03:01:47;1999.90;;;999.90;;
4132;SDS011;2080;51.038;7.008;2023-05-19T03:04:12;1999.90;;;999.90;;
4132;SDS011;2080;51.038;7.008;2023-05-19T03:06:38;1999.90;;;999.90;;
4132;SDS011;2080;51.038;7.008;2023-05-19T03:09:04;1999.90;;;999.90;;
4132;SDS011;2080;51.038;7.008;2023-05-19T03:11:31;1999.90;;;999.90;;
4132;SDS011;2080;51.038;7.008;2023-05-19T03:13:59;1999.90;;;999.90;;
4132;SDS011;2080;51.038;7.008;2023-05-19T03:16:24;1291.28;;;636.42;;
4132;SDS011;2080;51.038;7.008;2023-05-19T03:18:51;1013.63;;;549.17;;
4132;SDS011;2080;51.038;7.008;2023-05-19T03:21:17;1999.90;;;999.90;;
4132;SDS011;2080;51.038;7.008;2023-05-19T03:23:44;1999.90;;;999.90;;
4132;SDS011;2080;51.038;7.008;2023-05-19T03:26:11;1999.90;;;999.90;;
4132;SDS011;2080;51.038;7.008;2023-05-19T03:28:38;1999.90;;;999.90;;
4132;SDS011;2080;51.038;7.008;2023-05-19T03:31:06;1999.90;;;999.90;;
4132;SDS011;2080;51.038;7.008;2023-05-19T03:33:31;1999.90;;;999.90;;
4132;SDS011;2080;51.038;7.008;2023-05-19T03:35:57;1999.90;;;999.90;;
4132;SDS011;2080;51.038;7.008;2023-05-19T03:38:22;1999.90;;;999.90;;
4132;SDS011;2080;51.038;7.008;2023-05-19T03:40:48;1999.90;;;999.90;;
4132;SDS011;2080;51.038;7.008;2023-05-19T03:43:13;1999.90;;;999.90;;
4132;SDS011;2080;51.038;7.008;2023-05-19T03:45:41;1999.90;;;999.90;;
4132;SDS011;2080;51.038;7.008;2023-05-19T03:48:07;1999.90;;;999.90;;
4132;SDS011;2080;51.038;7.008;2023-05-19T03:50:34;1999.90;;;999.90;;
4132;SDS011;2080;51.038;7.008;2023-05-19T03:53:02;1999.90;;;999.90;;
4132;SDS011;2080;51.038;7.008;2023-05-19T03:55:30;1418.50;;;709.15;;
4132;SDS011;2080;51.038;7.008;2023-05-19T03:58:01;1824.68;;;936.30;;
4132;SDS011;2080;51.038;7.008;2023-05-19T04:00:26;1272.10;;;718.27;;
4132;SDS011;2080;51.038;7.008;2023-05-19T04:02:52;1999.90;;;999.90;;
4132;SDS011;2080;51.038;7.008;2023-05-19T04:05:17;1999.90;;;999.90;;
4132;SDS011;2080;51.038;7.008;2023-05-19T04:07:45;1999.90;;;999.90;;
4132;SDS011;2080;51.038;7.008;2023-05-19T04:10:12;1449.80;;;760.83;;
4132;SDS011;2080;51.038;7.008;2023-05-19T04:12:40;1999.90;;;999.90;;
4132;SDS011;2080;51.038;7.008;2023-05-19T04:15:06;1999.90;;;999.90;;
4132;SDS011;2080;51.038;7.008;2023-05-19T04:17:32;1999.90;;;999.90;;
4132;SDS011;2080;51.038;7.008;2023-05-19T04:20:01;1514.78;;;767.30;;
4132;SDS011;2080;51.038;7.008;2023-05-19T04:22:27;1667.90;;;999.90;;
4132;SDS011;2080;51.038;7.008;2023-05-19T04:24:52;1999.90;;;999.90;;
4132;SDS011;2080;51.038;7.008;2023-05-19T04:27:17;1999.90;;;999.90;;
4132;SDS011;2080;51.038;7.008;2023-05-19T04:29:43;1961.03;;;999.90;;
4132;SDS011;2080;51.038;7.008;2023-05-19T04:32:12;1664.20;;;999.90;;
4132;SDS011;2080;51.038;7.008;2023-05-19T04:34:41;1900.22;;;999.90;;
4132;SDS011;2080;51.038;7.008;2023-05-19T04:37:13;1918.80;;;999.90;;
4132;SDS011;2080;51.038;7.008;2023-05-19T04:39:40;894.75;;;800.53;;
4132;SDS011;2080;51.038;7.008;2023-05-19T04:42:08;837.13;;;756.10;;
4132;SDS011;2080;51.038;7.008;2023-05-19T04:44:37;1143.57;;;999.90;;
4132;SDS011;2080;51.038;7.008;2023-05-19T04:47:06;1132.72;;;999.90;;
4132;SDS011;2080;51.038;7.008;2023-05-19T04:49:35;759.88;;;687.40;;
4132;SDS011;2080;51.038;7.008;2023-05-19T04:52:07;766.75;;;693.38;;
4132;SDS011;2080;51.038;7.008;2023-05-19T04:54:37;915.60;;;817.47;;
4132;SDS011;2080;51.038;7.008;2023-05-19T04:57:05;867.72;;;776.55;;
4132;SDS011;2080;51.038;7.008;2023-05-19T04:59:34;1212.13;;;999.90;;
4132;SDS011;2080;51.038;7.008;2023-05-19T05:02:00;1543.45;;;999.90;;
4132;SDS011;2080;51.038;7.008;2023-05-19T05:04:28;1628.05;;;999.90;;
4132;SDS011;2080;51.038;7.008;2023-05-19T05:06:53;1054.93;;;939.50;;
4132;SDS011;2080;51.038;7.008;2023-05-19T05:09:19;884.23;;;802.80;;
4132;SDS011;2080;51.038;7.008;2023-05-19T05:11:44;1168.37;;;999.90;;
4132;SDS011;2080;51.038;7.008;2023-05-19T05:14:12;846.15;;;766.15;;
4132;SDS011;2080;51.038;7.008;2023-05-19T05:16:38;1211.67;;;999.90;;
4132;SDS011;2080;51.038;7.008;2023-05-19T05:19:07;1073.50;;;974.55;;
4132;SDS011;2080;51.038;7.008;2023-05-19T05:21:37;1191.68;;;999.90;;
4132;SDS011;2080;51.038;7.008;2023-05-19T05:24:03;762.03;;;686.93;;
4132;SDS011;2080;51.038;7.008;2023-05-19T05:26:32;561.78;;;502.52;;
4132;SDS011;2080;51.038;7.008;2023-05-19T05:28:59;1162.55;;;999.90;;
4132;SDS011;2080;51.038;7.008;2023-05-19T05:31:25;1124.97;;;999.90;;
4132;SDS011;2080;51.038;7.008;2023-05-19T05:33:50;1102.70;;;999.90;;
4132;SDS011;2080;51.038;7.008;2023-05-19T05:36:16;570.10;;;508.90;;
4132;SDS011;2080;51.038;7.008;2023-05-19T05:38:41;511.70;;;450.60;;
4132;SDS011;2080;51.038;7.008;2023-05-19T05:41:09;612.47;;;548.63;;
4132;SDS011;2080;51.038;7.008;2023-05-19T05:43:34;928.33;;;842.33;;
4132;SDS011;2080;51.038;7.008;2023-05-19T05:46:00;1032.60;;;938.20;;
4132;SDS011;2080;51.038;7.008;2023-05-19T05:48:25;1081.83;;;983.87;;
4132;SDS011;2080;51.038;7.008;2023-05-19T05:50:53;1120.63;;;999.90;;
4132;SDS011;2080;51.038;7.008;2023-05-19T05:53:20;996.35;;;906.20;;
4132;SDS011;2080;51.038;7.008;2023-05-19T05:55:48;465.58;;;338.42;;
4132;SDS011;2080;51.038;7.008;2023-05-19T05:58:15;488.85;;;428.25;;
4132;SDS011;2080;51.038;7.008;2023-05-19T06:00:44;781.10;;;706.88;;
4132;SDS011;2080;51.038;7.008;2023-05-19T06:03:11;469.20;;;356.45;;
4132;SDS011;2080;51.038;7.008;2023-05-19T06:05:40;1074.90;;;984.65;;
4132;SDS011;2080;51.038;7.008;2023-05-19T06:08:06;696.77;;;630.93;;
4132;SDS011;2080;51.038;7.008;2023-05-19T06:10:31;1109.60;;;999.90;;
4132;SDS011;2080;51.038;7.008;2023-05-19T06:12:59;1121.27;;;999.90;;
4132;SDS011;2080;51.038;7.008;2023-05-19T06:15:25;1078.70;;;986.15;;
4132;SDS011;2080;51.038;7.008;2023-05-19T06:17:50;1101.15;;;999.90;;
4132;SDS011;2080;51.038;7.008;2023-05-19T06:20:16;908.93;;;831.20;;
4132;SDS011;2080;51.038;7.008;2023-05-19T06:22:42;1101.45;;;999.90;;
4132;SDS011;2080;51.038;7.008;2023-05-19T06:25:07;959.67;;;878.97;;
4132;SDS011;2080;51.038;7.008;2023-05-19T06:27:34;774.43;;;706.40;;
4132;SDS011;2080;51.038;7.008;2023-05-19T06:30:02;688.43;;;625.17;;
4132;SDS011;2080;51.038;7.008;2023-05-19T06:32:28;530.47;;;474.57;;
4132;SDS011;2080;51.038;7.008;2023-05-19T06:34:55;508.65;;;454.38;;
4132;SDS011;2080;51.038;7.008;2023-05-19T06:37:25;497.65;;;443.65;;
4132;SDS011;2080;51.038;7.008;2023-05-19T06:39:52;540.78;;;484.40;;
4132;SDS011;2080;51.038;7.008;2023-05-19T06:42:18;465.63;;;337.27;;
4132;SDS011;2080;51.038;7.008;2023-05-19T06:44:50;995.45;;;906.22;;
4132;SDS011;2080;51.038;7.008;2023-05-19T06:47:20;1187.35;;;999.90;;
4132;SDS011;2080;51.038;7.008;2023-05-19T06:49:46;1176.75;;;999.90;;
4132;SDS011;2080;51.038;7.008;2023-05-19T06:52:15;1999.90;;;999.90;;
4132;SDS011;2080;51.038;7.008;2023-05-19T06:54:41;1999.90;;;999.90;;
4132;SDS011;2080;51.038;7.008;2023-05-19T06:57:06;1999.90;;;999.90;;
4132;SDS011;2080;51.038;7.008;2023-05-19T06:59:34;1999.90;;;999.90;;
4132;SDS011;2080;51.038;7.008;2023-05-19T07:02:03;1999.90;;;999.90;;
4132;SDS011;2080;51.038;7.008;2023-05-19T07:04:29;1999.90;;;999.90;;
4132;SDS011;2080;51.038;7.008;2023-05-19T07:06:57;1999.90;;;999.90;;
4132;SDS011;2080;51.038;7.008;2023-05-19T07:09:25;1999.90;;;999.90;;
4132;SDS011;2080;51.038;7.008;2023-05-19T07:11:50;1999.90;;;999.90;;
4132;SDS011;2080;51.038;7.008;2023-05-19T07:14:15;1999.90;;;999.90;;
4132;SDS011;2080;51.038;7.008;2023-05-19T07:16:41;1999.90;;;999.90;;
4132;SDS011;2080;51.038;7.008;2023-05-19T07:19:06;1999.90;;;999.90;;
4132;SDS011;2080;51.038;7.008;2023-05-19T07:21:34;1999.90;;;999.90;;
4132;SDS011;2080;51.038;7.008;2023-05-19T07:23:59;1999.90;;;999.90;;
4132;SDS011;2080;51.038;7.008;2023-05-19T07:26:27;1999.90;;;999.90;;
4132;SDS011;2080;51.038;7.008;2023-05-19T07:28:55;1999.90;;;999.90;;
4132;SDS011;2080;51.038;7.008;2023-05-19T07:31:21;1999.90;;;999.90;;
4132;SDS011;2080;51.038;7.008;2023-05-19T07:33:47;1999.90;;;999.90;;
4132;SDS011;2080;51.038;7.008;2023-05-19T07:36:12;1999.90;;;999.90;;
4132;SDS011;2080;51.038;7.008;2023-05-19T07:38:38;1999.90;;;999.90;;
4132;SDS011;2080;51.038;7.008;2023-05-19T07:41:03;1999.90;;;999.90;;
4132;SDS011;2080;51.038;7.008;2023-05-19T07:43:28;1999.90;;;999.90;;
4132;SDS011;2080;51.038;7.008;2023-05-19T07:45:56;1999.90;;;999.90;;
4132;SDS011;2080;51.038;7.008;2023-05-19T07:48:22;1999.90;;;999.90;;
4132;SDS011;2080;51.038;7.008;2023-05-19T07:50:49;1999.90;;;999.90;;
4132;SDS011;2080;51.038;7.008;2023-05-19T07:53:16;1999.90;;;999.90;;
4132;SDS011;2080;51.038;7.008;2023-05-19T07:55:41;1999.90;;;999.90;;
4132;SDS011;2080;51.038;7.008;2023-05-19T07:58:09;1999.90;;;999.90;;
4132;SDS011;2080;51.038;7.008;2023-05-19T08:00:34;1999.90;;;999.90;;
4132;SDS011;2080;51.038;7.008;2023-05-19T08:03:00;1999.90;;;999.90;;
4132;SDS011;2080;51.038;7.008;2023-05-19T08:05:26;1999.90;;;999.90;;
4132;SDS011;2080;51.038;7.008;2023-05-19T08:07:51;1999.90;;;999.90;;
4132;SDS011;2080;51.038;7.008;2023-05-19T08:10:19;1999.90;;;999.90;;
4132;SDS011;2080;51.038;7.008;2023-05-19T08:12:44;1999.90;;;999.90;;
4132;SDS011;2080;51.038;7.008;2023-05-19T08:15:09;1999.90;;;999.90;;
4132;SDS011;2080;51.038;7.008;2023-05-19T08:17:37;1999.90;;;999.90;;
4132;SDS011;2080;51.038;7.008;2023-05-19T08:20:05;1999.90;;;999.90;;
4132;SDS011;2080;51.038;7.008;2023-05-19T08:22:34;1999.90;;;999.90;;
4132;SDS011;2080;51.038;7.008;2023-05-19T08:25:00;1999.90;;;999.90;;
4132;SDS011;2080;51.038;7.008;2023-05-19T08:27:26;1999.90;;;999.90;;
4132;SDS011;2080;51.038;7.008;2023-05-19T08:29:53;1999.90;;;999.90;;
4132;SDS011;2080;51.038;7.008;2023-05-19T08:32:19;1999.90;;;999.90;;
4132;SDS011;2080;51.038;7.008;2023-05-19T08:34:47;1999.90;;;999.90;;
4132;SDS011;2080;51.038;7.008;2023-05-19T08:37:13;1999.90;;;999.90;;
4132;SDS011;2080;51.038;7.008;2023-05-19T08:39:41;1999.90;;;999.90;;
4132;SDS011;2080;51.038;7.008;2023-05-19T08:42:06;1999.90;;;999.90;;
4132;SDS011;2080;51.038;7.008;2023-05-19T08:44:33;1999.90;;;999.90;;
4132;SDS011;2080;51.038;7.008;2023-05-19T08:47:02;1999.90;;;999.90;;
4132;SDS011;2080;51.038;7.008;2023-05-19T08:49:36;1999.90;;;999.90;;
4132;SDS011;2080;51.038;7.008;2023-05-19T08:54:56;1999.90;;;999.90;;
4132;SDS011;2080;51.038;7.008;2023-05-19T08:57:30;1999.90;;;999.90;;
4132;SDS011;2080;51.038;7.008;2023-05-19T09:00:02;1999.90;;;999.90;;
4132;SDS011;2080;51.038;7.008;2023-05-19T09:02:36;1999.90;;;999.90;;
4132;SDS011;2080;51.038;7.008;2023-05-19T09:05:04;1999.90;;;999.90;;
4132;SDS011;2080;51.038;7.008;2023-05-19T09:07:31;1999.90;;;999.90;;
4132;SDS011;2080;51.038;7.008;2023-05-19T09:09:59;1999.90;;;999.90;;
4132;SDS011;2080;51.038;7.008;2023-05-19T09:12:25;1999.90;;;999.90;;
4132;SDS011;2080;51.038;7.008;2023-05-19T09:14:51;1999.90;;;999.90;;
4132;SDS011;2080;51.038;7.008;2023-05-19T09:17:16;1999.90;;;999.90;;
4132;SDS011;2080;51.038;7.008;2023-05-19T09:19:45;1999.90;;;999.90;;
4132;SDS011;2080;51.038;7.008;2023-05-19T09:22:14;1999.90;;;999.90;;
4132;SDS011;2080;51.038;7.008;2023-05-19T09:24:45;1999.90;;;999.90;;
4132;SDS011;2080;51.038;7.008;2023-05-19T09:27:13;1999.90;;;999.90;;
4132;SDS011;2080;51.038;7.008;2023-05-19T09:29:40;1999.90;;;999.90;;
4132;SDS011;2080;51.038;7.008;2023-05-19T09:32:06;1999.90;;;999.90;;
4132;SDS011;2080;51.038;7.008;2023-05-19T09:34:32;1999.90;;;999.90;;
4132;SDS011;2080;51.038;7.008;2023-05-19T09:36:57;1999.90;;;999.90;;
4132;SDS011;2080;51.038;7.008;2023-05-19T09:39:23;1999.90;;;999.90;;
4132;SDS011;2080;51.038;7.008;2023-05-19T09:41:53;1999.90;;;999.90;;
4132;SDS011;2080;51.038;7.008;2023-05-19T09:44:22;1999.90;;;999.90;;
4132;SDS011;2080;51.038;7.008;2023-05-19T09:46:55;1999.90;;;999.90;;
4132;SDS011;2080;51.038;7.008;2023-05-19T09:49:23;1999.90;;;999.90;;
4132;SDS011;2080;51.038;7.008;2023-05-19T09:51:53;1999.90;;;999.90;;
4132;SDS011;2080;51.038;7.008;2023-05-19T09:54:20;1999.90;;;999.90;;
4132;SDS011;2080;51.038;7.008;2023-05-19T09:59:28;1999.90;;;999.90;;
4132;SDS011;2080;51.038;7.008;2023-05-19T10:01:56;1999.90;;;999.90;;
4132;SDS011;2080;51.038;7.008;2023-05-19T10:04:23;1999.90;;;999.90;;
4132;SDS011;2080;51.038;7.008;2023-05-19T10:06:53;1999.90;;;999.90;;
4132;SDS011;2080;51.038;7.008;2023-05-19T10:09:23;1999.90;;;999.90;;
4132;SDS011;2080;51.038;7.008;2023-05-19T10:11:54;1999.90;;;999.90;;
4132;SDS011;2080;51.038;7.008;2023-05-19T10:14:27;1999.90;;;999.90;;
4132;SDS011;2080;51.038;7.008;2023-05-19T10:16:58;1999.90;;;999.90;;
4132;SDS011;2080;51.038;7.008;2023-05-19T10:19:26;1999.90;;;999.90;;
4132;SDS011;2080;51.038;7.008;2023-05-19T10:21:52;1999.90;;;999.90;;
4132;SDS011;2080;51.038;7.008;2023-05-19T10:24:18;1999.90;;;999.90;;
4132;SDS011;2080;51.038;7.008;2023-05-19T10:26:55;1999.90;;;999.90;;
4132;SDS011;2080;51.038;7.008;2023-05-19T10:29:27;1999.90;;;999.90;;
4132;SDS011;2080;51.038;7.008;2023-05-19T10:32:13;1999.90;;;999.90;;
4132;SDS011;2080;51.038;7.008;2023-05-19T10:40:52;1999.90;;;999.90;;
4132;SDS011;2080;51.038;7.008;2023-05-19T10:43:37;1999.90;;;999.90;;
4132;SDS011;2080;51.038;7.008;2023-05-19T10:46:11;1999.90;;;999.90;;
4132;SDS011;2080;51.038;7.008;2023-05-19T10:48:36;1999.90;;;999.90;;
4132;SDS011;2080;51.038;7.008;2023-05-19T10:51:02;1999.90;;;999.90;;
4132;SDS011;2080;51.038;7.008;2023-05-19T10:53:33;1999.90;;;999.90;;
4132;SDS011;2080;51.038;7.008;2023-05-19T10:56:01;1999.90;;;999.90;;
4132;SDS011;2080;51.038;7.008;2023-05-19T11:01:05;1999.90;;;999.90;;
4132;SDS011;2080;51.038;7.008;2023-05-19T11:03:51;1999.90;;;999.90;;
4132;SDS011;2080;51.038;7.008;2023-05-19T11:08:56;1999.90;;;999.90;;
4132;SDS011;2080;51.038;7.008;2023-05-19T11:11:25;1999.90;;;999.90;;
4132;SDS011;2080;51.038;7.008;2023-05-19T11:14:08;1999.90;;;999.90;;
4132;SDS011;2080;51.038;7.008;2023-05-19T11:16:35;1999.90;;;999.90;;
4132;SDS011;2080;51.038;7.008;2023-05-19T11:19:01;1999.90;;;999.90;;
4132;SDS011;2080;51.038;7.008;2023-05-19T11:27:25;1999.90;;;999.90;;
4132;SDS011;2080;51.038;7.008;2023-05-19T11:30:01;1999.90;;;999.90;;
4132;SDS011;2080;51.038;7.008;2023-05-19T11:32:45;1999.90;;;999.90;;
4132;SDS011;2080;51.038;7.008;2023-05-19T11:35:16;1999.90;;;999.90;;
4132;SDS011;2080;51.038;7.008;2023-05-19T11:37:42;1999.90;;;999.90;;
4132;SDS011;2080;51.038;7.008;2023-05-19T11:40:12;1999.90;;;999.90;;
4132;SDS011;2080;51.038;7.008;2023-05-19T11:42:39;1999.90;;;999.90;;
4132;SDS011;2080;51.038;7.008;2023-05-19T11:45:05;1999.90;;;999.90;;
4132;SDS011;2080;51.038;7.008;2023-05-19T11:47:31;1999.90;;;999.90;;
4132;SDS011;2080;51.038;7.008;2023-05-19T11:50:01;1999.90;;;999.90;;
4132;SDS011;2080;51.038;7.008;2023-05-19T11:52:27;1999.90;;;999.90;;
4132;SDS011;2080;51.038;7.008;2023-05-19T11:54:53;1999.90;;;999.90;;
4132;SDS011;2080;51.038;7.008;2023-05-19T11:57:18;1999.90;;;999.90;;
4132;SDS011;2080;51.038;7.008;2023-05-19T11:59:46;1999.90;;;999.90;;
4132;SDS011;2080;51.038;7.008;2023-05-19T12:02:17;1999.90;;;999.90;;
4132;SDS011;2080;51.038;7.008;2023-05-19T12:04:46;1999.90;;;999.90;;
4132;SDS011;2080;51.038;7.008;2023-05-19T12:07:17;1999.90;;;999.90;;
4132;SDS011;2080;51.038;7.008;2023-05-19T12:09:47;1999.90;;;999.90;;
4132;SDS011;2080;51.038;7.008;2023-05-19T12:12:16;1999.90;;;999.90;;
4132;SDS011;2080;51.038;7.008;2023-05-19T12:14:43;1999.90;;;999.90;;
4132;SDS011;2080;51.038;7.008;2023-05-19T12:17:15;1999.90;;;999.90;;
4132;SDS011;2080;51.038;7.008;2023-05-19T12:19:41;1999.90;;;999.90;;
4132;SDS011;2080;51.038;7.008;2023-05-19T12:22:10;1999.90;;;999.90;;
4132;SDS011;2080;51.038;7.008;2023-05-19T12:24:36;1999.90;;;999.90;;
4132;SDS011;2080;51.038;7.008;2023-05-19T12:27:03;1999.90;;;999.90;;
4132;SDS011;2080;51.038;7.008;2023-05-19T12:29:38;1999.90;;;999.90;;
4132;SDS011;2080;51.038;7.008;2023-05-19T12:32:05;1999.90;;;999.90;;
4132;SDS011;2080;51.038;7.008;2023-05-19T12:34:33;1999.90;;;999.90;;
4132;SDS011;2080;51.038;7.008;2023-05-19T12:37:00;1999.90;;;999.90;;
4132;SDS011;2080;51.038;7.008;2023-05-19T12:39:26;1999.90;;;999.90;;
4132;SDS011;2080;51.038;7.008;2023-05-19T12:41:52;1999.90;;;999.90;;
4132;SDS011;2080;51.038;7.008;2023-05-19T12:44:27;1999.90;;;999.90;;
4132;SDS011;2080;51.038;7.008;2023-05-19T12:46:55;1999.90;;;999.90;;
4132;SDS011;2080;51.038;7.008;2023-05-19T12:49:22;1999.90;;;999.90;;
4132;SDS011;2080;51.038;7.008;2023-05-19T12:51:53;1999.90;;;999.90;;
4132;SDS011;2080;51.038;7.008;2023-05-19T12:54:19;1999.90;;;999.90;;
4132;SDS011;2080;51.038;7.008;2023-05-19T12:56:48;1999.90;;;999.90;;
4132;SDS011;2080;51.038;7.008;2023-05-19T12:59:21;1999.90;;;999.90;;
4132;SDS011;2080;51.038;7.008;2023-05-19T13:01:57;1999.90;;;999.90;;
4132;SDS011;2080;51.038;7.008;2023-05-19T13:04:26;1999.90;;;999.90;;
4132;SDS011;2080;51.038;7.008;2023-05-19T13:06:53;1999.90;;;999.90;;
4132;SDS011;2080;51.038;7.008;2023-05-19T13:09:21;1999.90;;;999.90;;
4132;SDS011;2080;51.038;7.008;2023-05-19T13:11:46;1999.90;;;999.90;;
4132;SDS011;2080;51.038;7.008;2023-05-19T13:14:15;1999.90;;;999.90;;
4132;SDS011;2080;51.038;7.008;2023-05-19T13:16:42;1999.90;;;999.90;;
4132;SDS011;2080;51.038;7.008;2023-05-19T13:19:10;1999.90;;;999.90;;
4132;SDS011;2080;51.038;7.008;2023-05-19T13:21:36;1999.90;;;999.90;;
4132;SDS011;2080;51.038;7.008;2023-05-19T13:24:02;1999.90;;;999.90;;
4132;SDS011;2080;51.038;7.008;2023-05-19T13:26:28;1999.90;;;999.90;;
4132;SDS011;2080;51.038;7.008;2023-05-19T13:28:54;1999.90;;;999.90;;
4132;SDS011;2080;51.038;7.008;2023-05-19T13:31:19;1999.90;;;999.90;;
4132;SDS011;2080;51.038;7.008;2023-05-19T13:33:48;1999.90;;;999.90;;
4132;SDS011;2080;51.038;7.008;2023-05-19T13:36:15;1999.90;;;999.90;;
4132;SDS011;2080;51.038;7.008;2023-05-19T13:38:40;1999.90;;;999.90;;
4132;SDS011;2080;51.038;7.008;2023-05-19T13:41:08;1999.90;;;999.90;;
4132;SDS011;2080;51.038;7.008;2023-05-19T13:43:33;1999.90;;;999.90;;
4132;SDS011;2080;51.038;7.008;2023-05-19T13:46:01;1999.90;;;999.90;;
4132;SDS011;2080;51.038;7.008;2023-05-19T13:48:26;1999.90;;;999.90;;
4132;SDS011;2080;51.038;7.008;2023-05-19T13:50:52;1999.90;;;999.90;;
4132;SDS011;2080;51.038;7.008;2023-05-19T13:53:19;1999.90;;;999.90;;
4132;SDS011;2080;51.038;7.008;2023-05-19T13:55:45;1999.90;;;999.90;;
4132;SDS011;2080;51.038;7.008;2023-05-19T13:58:12;1999.90;;;999.90;;
4132;SDS011;2080;51.038;7.008;2023-05-19T14:00:39;1999.90;;;999.90;;
4132;SDS011;2080;51.038;7.008;2023-05-19T14:03:05;1999.90;;;999.90;;
4132;SDS011;2080;51.038;7.008;2023-05-19T14:05:33;1999.90;;;999.90;;
4132;SDS011;2080;51.038;7.008;2023-05-19T14:07:58;1999.90;;;999.90;;
4132;SDS011;2080;51.038;7.008;2023-05-19T14:10:25;1999.90;;;999.90;;
4132;SDS011;2080;51.038;7.008;2023-05-19T14:12:50;1999.90;;;999.90;;
4132;SDS011;2080;51.038;7.008;2023-05-19T14:15:18;1999.90;;;999.90;;
4132;SDS011;2080;51.038;7.008;2023-05-19T14:17:44;1999.90;;;999.90;;
4132;SDS011;2080;51.038;7.008;2023-05-19T14:20:12;1999.90;;;999.90;;
4132;SDS011;2080;51.038;7.008;2023-05-19T14:22:37;1999.90;;;999.90;;
4132;SDS011;2080;51.038;7.008;2023-05-19T14:25:05;1999.90;;;999.90;;
4132;SDS011;2080;51.038;7.008;2023-05-19T14:27:31;1999.90;;;999.90;;
4132;SDS011;2080;51.038;7.008;2023-05-19T14:29:58;1999.90;;;999.90;;
4132;SDS011;2080;51.038;7.008;2023-05-19T14:32:26;1999.90;;;999.90;;
4132;SDS011;2080;51.038;7.008;2023-05-19T14:34:51;1999.90;;;999.90;;
4132;SDS011;2080;51.038;7.008;2023-05-19T14:37:17;1999.90;;;999.90;;
4132;SDS011;2080;51.038;7.008;2023-05-19T14:39:45;1999.90;;;999.90;;
4132;SDS011;2080;51.038;7.008;2023-05-19T14:42:10;1999.90;;;999.90;;
4132;SDS011;2080;51.038;7.008;2023-05-19T14:44:38;1999.90;;;999.90;;